Decoded Metar for K2W6 (CAPT DUKE RGNL in MD, USA) (IATA:2W6) | Meteo·Mobile Aviation Weather
aviador You're here:

K2W6 Decoded Metar

CAPT DUKE RGNL in MD, USA
Report Time2019-09-23 08:43:00
UTC Time2019-09-23 09:10:41
Flight Rules unknown UNKNOWN
Wind210° at 06 kt
VisibilityN/A
Phenomena:N/A
Clouds:N/A
Expected CloudBase > 1,600 ft AGL from Temp-Dew spread
CeilingNone
Temp22°C (ISA +7)
Dew Point18°C (78% RH)
QNH1016 hPa
Density Alt1,165 ft
Elevation144 ft
Report Wrong Elevation
Raw Report
K2W6 230843Z AUTO 21006KT CLR 22/18 A3000 RMK AO1=

Extra information for K2W6:More info

Metar Taf Metar & Taf Last 4 Metars F.Rules Stats Wind Profile Meteogram Temp Stats Airport Information Weather charts Add Link Nearby VenuesMetar ALERT Operation Metar Decoded Social comments

AIRNAV info for K2W6